sensor_id;sensor_type;location;lat;lon;timestamp;temperature;humidity
64012;DHT22;50211;52.768;12.124;2023-07-20T00:02:17;15.60;99.90
64012;DHT22;50211;52.768;12.124;2023-07-20T00:04:43;15.70;99.90
64012;DHT22;50211;52.768;12.124;2023-07-20T00:07:08;15.70;99.90
64012;DHT22;50211;52.768;12.124;2023-07-20T00:09:34;15.70;99.90
64012;DHT22;50211;52.768;12.124;2023-07-20T00:11:59;15.80;99.90
64012;DHT22;50211;52.768;12.124;2023-07-20T00:14:25;15.80;99.90
64012;DHT22;50211;52.768;12.124;2023-07-20T00:16:51;15.80;99.90
64012;DHT22;50211;52.768;12.124;2023-07-20T00:19:27;15.80;99.90
64012;DHT22;50211;52.768;12.124;2023-07-20T00:21:54;15.80;99.90
64012;DHT22;50211;52.768;12.124;2023-07-20T00:24:20;15.80;99.90
64012;DHT22;50211;52.768;12.124;2023-07-20T00:26:45;15.80;99.90
64012;DHT22;50211;52.768;12.124;2023-07-20T00:29:11;15.80;99.90
64012;DHT22;50211;52.768;12.124;2023-07-20T00:31:36;15.80;99.90
64012;DHT22;50211;52.768;12.124;2023-07-20T00:34:03;15.70;99.90
64012;DHT22;50211;52.768;12.124;2023-07-20T00:36:29;15.70;99.90
64012;DHT22;50211;52.768;12.124;2023-07-20T00:38:54;15.70;99.90
64012;DHT22;50211;52.768;12.124;2023-07-20T00:41:20;15.70;99.90
64012;DHT22;50211;52.768;12.124;2023-07-20T00:43:46;15.70;99.90
64012;DHT22;50211;52.768;12.124;2023-07-20T00:46:11;15.70;99.90
64012;DHT22;50211;52.768;12.124;2023-07-20T00:48:37;15.70;99.90
64012;DHT22;50211;52.768;12.124;2023-07-20T00:51:03;15.60;99.90
64012;DHT22;50211;52.768;12.124;2023-07-20T00:53:29;15.70;99.90
64012;DHT22;50211;52.768;12.124;2023-07-20T00:55:55;15.70;99.90
64012;DHT22;50211;52.768;12.124;2023-07-20T00:58:21;15.60;99.90
64012;DHT22;50211;52.768;12.124;2023-07-20T01:00:46;15.60;99.90
64012;DHT22;50211;52.768;12.124;2023-07-20T01:03:12;15.50;99.90
64012;DHT22;50211;52.768;12.124;2023-07-20T01:08:56;15.40;99.90
64012;DHT22;50211;52.768;12.124;2023-07-20T01:11:36;15.40;99.90
64012;DHT22;50211;52.768;12.124;2023-07-20T01:14:03;15.40;99.90
64012;DHT22;50211;52.768;12.124;2023-07-20T01:16:30;15.30;99.90
64012;DHT22;50211;52.768;12.124;2023-07-20T01:18:55;15.30;99.90
64012;DHT22;50211;52.768;12.124;2023-07-20T01:21:26;15.30;99.90
64012;DHT22;50211;52.768;12.124;2023-07-20T01:24:22;15.30;99.90
64012;DHT22;50211;52.768;12.124;2023-07-20T01:29:38;15.40;99.90
64012;DHT22;50211;52.768;12.124;2023-07-20T01:32:08;15.30;99.90
64012;DHT22;50211;52.768;12.124;2023-07-20T01:34:35;15.40;99.90
64012;DHT22;50211;52.768;12.124;2023-07-20T01:37:02;15.50;99.90
64012;DHT22;50211;52.768;12.124;2023-07-20T01:39:29;15.50;99.90
64012;DHT22;50211;52.768;12.124;2023-07-20T01:41:55;15.50;99.90
64012;DHT22;50211;52.768;12.124;2023-07-20T01:44:21;15.50;99.90
64012;DHT22;50211;52.768;12.124;2023-07-20T01:46:47;15.50;99.90
64012;DHT22;50211;52.768;12.124;2023-07-20T01:49:12;15.50;99.90
64012;DHT22;50211;52.768;12.124;2023-07-20T01:51:38;15.50;99.90
64012;DHT22;50211;52.768;12.124;2023-07-20T01:54:03;15.50;99.90
64012;DHT22;50211;52.768;12.124;2023-07-20T01:56:29;15.50;99.90
64012;DHT22;50211;52.768;12.124;2023-07-20T01:58:54;15.50;99.90
64012;DHT22;50211;52.768;12.124;2023-07-20T02:01:20;15.50;99.90
64012;DHT22;50211;52.768;12.124;2023-07-20T02:03:45;15.50;99.90
64012;DHT22;50211;52.768;12.124;2023-07-20T02:06:11;15.40;99.90
64012;DHT22;50211;52.768;12.124;2023-07-20T02:08:36;15.40;99.90
64012;DHT22;50211;52.768;12.124;2023-07-20T02:11:02;15.40;99.90
64012;DHT22;50211;52.768;12.124;2023-07-20T02:13:28;15.40;99.90
64012;DHT22;50211;52.768;12.124;2023-07-20T02:15:53;15.30;99.90
64012;DHT22;50211;52.768;12.124;2023-07-20T02:18:18;15.30;99.90
64012;DHT22;50211;52.768;12.124;2023-07-20T02:20:44;15.20;99.90
64012;DHT22;50211;52.768;12.124;2023-07-20T02:23:10;15.20;99.90
64012;DHT22;50211;52.768;12.124;2023-07-20T02:25:36;15.20;99.90
64012;DHT22;50211;52.768;12.124;2023-07-20T02:28:03;15.20;99.90
64012;DHT22;50211;52.768;12.124;2023-07-20T02:30:29;15.20;99.90
64012;DHT22;50211;52.768;12.124;2023-07-20T02:32:54;15.20;99.90
64012;DHT22;50211;52.768;12.124;2023-07-20T02:35:23;15.20;99.90
64012;DHT22;50211;52.768;12.124;2023-07-20T02:37:49;15.10;99.90
64012;DHT22;50211;52.768;12.124;2023-07-20T02:40:14;15.10;99.90
64012;DHT22;50211;52.768;12.124;2023-07-20T02:42:40;15.00;99.90
64012;DHT22;50211;52.768;12.124;2023-07-20T02:45:06;15.00;99.90
64012;DHT22;50211;52.768;12.124;2023-07-20T02:47:32;14.90;99.90
64012;DHT22;50211;52.768;12.124;2023-07-20T02:49:57;14.90;99.90
64012;DHT22;50211;52.768;12.124;2023-07-20T02:52:23;14.80;99.90
64012;DHT22;50211;52.768;12.124;2023-07-20T02:54:49;14.80;99.90
64012;DHT22;50211;52.768;12.124;2023-07-20T02:57:14;14.70;99.90
64012;DHT22;50211;52.768;12.124;2023-07-20T02:59:40;14.70;99.90
64012;DHT22;50211;52.768;12.124;2023-07-20T03:02:05;14.60;99.90
64012;DHT22;50211;52.768;12.124;2023-07-20T03:04:35;14.50;99.90
64012;DHT22;50211;52.768;12.124;2023-07-20T03:07:02;14.50;99.90
64012;DHT22;50211;52.768;12.124;2023-07-20T03:09:28;14.50;99.90
64012;DHT22;50211;52.768;12.124;2023-07-20T03:11:54;14.50;99.90
64012;DHT22;50211;52.768;12.124;2023-07-20T03:14:20;14.60;99.90
64012;DHT22;50211;52.768;12.124;2023-07-20T03:16:45;14.40;99.90
64012;DHT22;50211;52.768;12.124;2023-07-20T03:19:11;14.50;99.90
64012;DHT22;50211;52.768;12.124;2023-07-20T03:21:36;14.50;99.90
64012;DHT22;50211;52.768;12.124;2023-07-20T03:24:09;14.50;99.90
64012;DHT22;50211;52.768;12.124;2023-07-20T03:26:35;14.40;99.90
64012;DHT22;50211;52.768;12.124;2023-07-20T03:29:02;14.50;99.90
64012;DHT22;50211;52.768;12.124;2023-07-20T03:31:28;14.50;99.90
64012;DHT22;50211;52.768;12.124;2023-07-20T03:33:53;14.50;99.90
64012;DHT22;50211;52.768;12.124;2023-07-20T03:36:19;14.50;99.90
64012;DHT22;50211;52.768;12.124;2023-07-20T03:38:45;14.50;99.90
64012;DHT22;50211;52.768;12.124;2023-07-20T03:41:10;14.50;99.90
64012;DHT22;50211;52.768;12.124;2023-07-20T03:43:37;14.50;99.90
64012;DHT22;50211;52.768;12.124;2023-07-20T03:46:02;14.50;99.90
64012;DHT22;50211;52.768;12.124;2023-07-20T03:48:32;14.50;99.90
64012;DHT22;50211;52.768;12.124;2023-07-20T03:50:58;14.50;99.90
64012;DHT22;50211;52.768;12.124;2023-07-20T03:53:24;14.50;99.90
64012;DHT22;50211;52.768;12.124;2023-07-20T03:55:50;14.50;99.90
64012;DHT22;50211;52.768;12.124;2023-07-20T03:58:17;14.50;99.90
64012;DHT22;50211;52.768;12.124;2023-07-20T04:00:47;14.50;99.90
64012;DHT22;50211;52.768;12.124;2023-07-20T04:03:13;14.50;99.90
64012;DHT22;50211;52.768;12.124;2023-07-20T04:05:39;14.50;99.90
64012;DHT22;50211;52.768;12.124;2023-07-20T04:08:05;14.50;99.90
64012;DHT22;50211;52.768;12.124;2023-07-20T04:10:30;14.50;99.90
64012;DHT22;50211;52.768;12.124;2023-07-20T04:12:56;14.50;99.90
64012;DHT22;50211;52.768;12.124;2023-07-20T04:15:21;14.50;99.90
64012;DHT22;50211;52.768;12.124;2023-07-20T04:17:47;14.50;99.90
64012;DHT22;50211;52.768;12.124;2023-07-20T04:20:12;14.40;99.90
64012;DHT22;50211;52.768;12.124;2023-07-20T04:22:38;14.40;99.90
64012;DHT22;50211;52.768;12.124;2023-07-20T04:25:04;14.30;99.90
64012;DHT22;50211;52.768;12.124;2023-07-20T04:27:30;14.30;99.90
64012;DHT22;50211;52.768;12.124;2023-07-20T04:29:57;14.30;99.90
64012;DHT22;50211;52.768;12.124;2023-07-20T04:32:23;14.30;99.90
64012;DHT22;50211;52.768;12.124;2023-07-20T04:34:48;14.30;99.90
64012;DHT22;50211;52.768;12.124;2023-07-20T04:37:14;14.30;99.90
64012;DHT22;50211;52.768;12.124;2023-07-20T04:39:39;14.40;99.90
64012;DHT22;50211;52.768;12.124;2023-07-20T04:42:05;14.50;99.90
64012;DHT22;50211;52.768;12.124;2023-07-20T04:44:30;14.60;99.90
64012;DHT22;50211;52.768;12.124;2023-07-20T04:46:56;14.60;99.90
64012;DHT22;50211;52.768;12.124;2023-07-20T04:49:21;14.70;99.90
64012;DHT22;50211;52.768;12.124;2023-07-20T04:51:47;14.80;99.90
64012;DHT22;50211;52.768;12.124;2023-07-20T04:54:12;14.90;99.90
64012;DHT22;50211;52.768;12.124;2023-07-20T04:56:39;14.90;99.90
64012;DHT22;50211;52.768;12.124;2023-07-20T04:59:04;15.00;99.90
64012;DHT22;50211;52.768;12.124;2023-07-20T05:01:30;15.20;99.90
64012;DHT22;50211;52.768;12.124;2023-07-20T05:03:55;15.30;99.90
64012;DHT22;50211;52.768;12.124;2023-07-20T05:06:21;15.50;99.90
64012;DHT22;50211;52.768;12.124;2023-07-20T05:08:46;15.60;99.90
64012;DHT22;50211;52.768;12.124;2023-07-20T05:11:12;15.70;99.90
64012;DHT22;50211;52.768;12.124;2023-07-20T05:13:38;15.90;99.90
64012;DHT22;50211;52.768;12.124;2023-07-20T05:16:03;15.80;99.90
64012;DHT22;50211;52.768;12.124;2023-07-20T05:18:29;15.80;99.90
64012;DHT22;50211;52.768;12.124;2023-07-20T05:20:54;15.70;99.90
64012;DHT22;50211;52.768;12.124;2023-07-20T05:23:20;15.70;99.90
64012;DHT22;50211;52.768;12.124;2023-07-20T05:25:46;15.70;99.90
64012;DHT22;50211;52.768;12.124;2023-07-20T05:28:12;15.90;99.90
64012;DHT22;50211;52.768;12.124;2023-07-20T05:30:37;15.90;99.90
64012;DHT22;50211;52.768;12.124;2023-07-20T05:33:03;15.90;99.90
64012;DHT22;50211;52.768;12.124;2023-07-20T05:35:28;15.90;99.90
64012;DHT22;50211;52.768;12.124;2023-07-20T05:37:54;16.00;99.90
64012;DHT22;50211;52.768;12.124;2023-07-20T05:40:20;16.10;99.90
64012;DHT22;50211;52.768;12.124;2023-07-20T05:42:47;16.10;99.90
64012;DHT22;50211;52.768;12.124;2023-07-20T05:45:14;16.20;99.90
64012;DHT22;50211;52.768;12.124;2023-07-20T05:47:41;16.10;99.90
64012;DHT22;50211;52.768;12.124;2023-07-20T05:50:07;16.00;99.90
64012;DHT22;50211;52.768;12.124;2023-07-20T05:52:32;16.00;99.90
64012;DHT22;50211;52.768;12.124;2023-07-20T05:54:58;16.00;99.90
64012;DHT22;50211;52.768;12.124;2023-07-20T05:57:23;16.00;99.90
64012;DHT22;50211;52.768;12.124;2023-07-20T05:59:49;16.00;99.90
64012;DHT22;50211;52.768;12.124;2023-07-20T06:02:16;16.10;99.90
64012;DHT22;50211;52.768;12.124;2023-07-20T06:04:42;16.00;99.90
64012;DHT22;50211;52.768;12.124;2023-07-20T06:07:07;16.00;99.90
64012;DHT22;50211;52.768;12.124;2023-07-20T06:09:33;16.20;99.90
64012;DHT22;50211;52.768;12.124;2023-07-20T06:11:58;16.30;99.90
64012;DHT22;50211;52.768;12.124;2023-07-20T06:14:24;16.60;99.90
64012;DHT22;50211;52.768;12.124;2023-07-20T06:16:50;16.90;99.90
64012;DHT22;50211;52.768;12.124;2023-07-20T06:19:15;16.90;99.90
64012;DHT22;50211;52.768;12.124;2023-07-20T06:21:41;17.00;99.90
64012;DHT22;50211;52.768;12.124;2023-07-20T06:24:07;17.10;99.90
64012;DHT22;50211;52.768;12.124;2023-07-20T06:26:33;17.20;99.90
64012;DHT22;50211;52.768;12.124;2023-07-20T06:29:04;17.20;99.90
64012;DHT22;50211;52.768;12.124;2023-07-20T06:31:31;17.10;99.90
64012;DHT22;50211;52.768;12.124;2023-07-20T06:33:57;16.90;99.90
64012;DHT22;50211;52.768;12.124;2023-07-20T06:36:22;16.80;99.90
64012;DHT22;50211;52.768;12.124;2023-07-20T06:38:48;16.70;99.90
64012;DHT22;50211;52.768;12.124;2023-07-20T06:41:13;16.70;99.90
64012;DHT22;50211;52.768;12.124;2023-07-20T06:43:39;16.80;99.90
64012;DHT22;50211;52.768;12.124;2023-07-20T06:46:04;16.80;99.90
64012;DHT22;50211;52.768;12.124;2023-07-20T06:48:30;16.90;99.90
64012;DHT22;50211;52.768;12.124;2023-07-20T06:50:55;17.00;99.90
64012;DHT22;50211;52.768;12.124;2023-07-20T06:53:21;17.00;99.90
64012;DHT22;50211;52.768;12.124;2023-07-20T06:55:47;16.90;99.90
64012;DHT22;50211;52.768;12.124;2023-07-20T06:58:12;17.00;99.90
64012;DHT22;50211;52.768;12.124;2023-07-20T07:00:38;17.00;99.90
64012;DHT22;50211;52.768;12.124;2023-07-20T07:03:03;17.10;99.90
64012;DHT22;50211;52.768;12.124;2023-07-20T07:05:29;17.20;99.90
64012;DHT22;50211;52.768;12.124;2023-07-20T07:07:54;17.20;99.90
64012;DHT22;50211;52.768;12.124;2023-07-20T07:10:20;17.30;99.90
64012;DHT22;50211;52.768;12.124;2023-07-20T07:12:45;17.60;99.90
64012;DHT22;50211;52.768;12.124;2023-07-20T07:15:11;17.90;99.90
64012;DHT22;50211;52.768;12.124;2023-07-20T07:17:37;17.70;99.90
64012;DHT22;50211;52.768;12.124;2023-07-20T07:20:03;17.80;99.90
64012;DHT22;50211;52.768;12.124;2023-07-20T07:22:29;17.70;99.90
64012;DHT22;50211;52.768;12.124;2023-07-20T07:24:54;17.60;99.90
64012;DHT22;50211;52.768;12.124;2023-07-20T07:27:20;17.60;99.90
64012;DHT22;50211;52.768;12.124;2023-07-20T07:29:45;17.50;99.90
64012;DHT22;50211;52.768;12.124;2023-07-20T07:32:12;17.40;99.90
64012;DHT22;50211;52.768;12.124;2023-07-20T07:34:38;17.30;99.90
64012;DHT22;50211;52.768;12.124;2023-07-20T07:37:07;17.30;99.90
64012;DHT22;50211;52.768;12.124;2023-07-20T07:39:33;17.10;99.90
64012;DHT22;50211;52.768;12.124;2023-07-20T07:41:58;17.20;99.90
64012;DHT22;50211;52.768;12.124;2023-07-20T07:44:24;17.10;99.90
64012;DHT22;50211;52.768;12.124;2023-07-20T07:46:50;17.00;99.90
64012;DHT22;50211;52.768;12.124;2023-07-20T07:49:16;16.90;99.90
64012;DHT22;50211;52.768;12.124;2023-07-20T07:51:41;16.90;99.90
64012;DHT22;50211;52.768;12.124;2023-07-20T07:54:07;16.90;99.90
64012;DHT22;50211;52.768;12.124;2023-07-20T07:56:32;16.90;99.90
64012;DHT22;50211;52.768;12.124;2023-07-20T07:58:58;16.90;99.90
64012;DHT22;50211;52.768;12.124;2023-07-20T08:01:23;17.00;99.90
64012;DHT22;50211;52.768;12.124;2023-07-20T08:03:49;17.10;99.90
64012;DHT22;50211;52.768;12.124;2023-07-20T08:06:15;17.20;99.90
64012;DHT22;50211;52.768;12.124;2023-07-20T08:08:41;17.30;99.90
64012;DHT22;50211;52.768;12.124;2023-07-20T08:11:07;17.40;99.90
64012;DHT22;50211;52.768;12.124;2023-07-20T08:13:33;17.50;99.90
64012;DHT22;50211;52.768;12.124;2023-07-20T08:15:58;17.60;99.90
64012;DHT22;50211;52.768;12.124;2023-07-20T08:18:24;17.50;99.90
64012;DHT22;50211;52.768;12.124;2023-07-20T08:20:49;17.60;99.90
64012;DHT22;50211;52.768;12.124;2023-07-20T08:23:15;17.60;99.90
64012;DHT22;50211;52.768;12.124;2023-07-20T08:25:41;17.80;99.90
64012;DHT22;50211;52.768;12.124;2023-07-20T08:28:14;17.80;99.90
64012;DHT22;50211;52.768;12.124;2023-07-20T08:30:46;18.00;99.90
64012;DHT22;50211;52.768;12.124;2023-07-20T08:33:16;18.00;99.90
64012;DHT22;50211;52.768;12.124;2023-07-20T08:35:44;18.10;99.90
64012;DHT22;50211;52.768;12.124;2023-07-20T08:38:09;18.30;99.90
64012;DHT22;50211;52.768;12.124;2023-07-20T08:40:43;18.30;99.90
64012;DHT22;50211;52.768;12.124;2023-07-20T08:43:10;18.50;99.90
64012;DHT22;50211;52.768;12.124;2023-07-20T08:45:39;18.70;99.90
64012;DHT22;50211;52.768;12.124;2023-07-20T08:48:06;18.80;99.90
64012;DHT22;50211;52.768;12.124;2023-07-20T08:50:32;18.90;99.90
64012;DHT22;50211;52.768;12.124;2023-07-20T08:52:59;18.90;99.90
64012;DHT22;50211;52.768;12.124;2023-07-20T08:55:26;18.80;99.90
64012;DHT22;50211;52.768;12.124;2023-07-20T08:57:54;19.00;99.90
64012;DHT22;50211;52.768;12.124;2023-07-20T09:00:21;19.10;99.90
64012;DHT22;50211;52.768;12.124;2023-07-20T09:02:52;19.20;99.90
64012;DHT22;50211;52.768;12.124;2023-07-20T09:05:22;19.20;99.90
64012;DHT22;50211;52.768;12.124;2023-07-20T09:07:48;19.20;99.90
64012;DHT22;50211;52.768;12.124;2023-07-20T09:10:14;19.20;99.90
64012;DHT22;50211;52.768;12.124;2023-07-20T09:12:41;19.40;99.90
64012;DHT22;50211;52.768;12.124;2023-07-20T09:15:07;19.50;99.90
64012;DHT22;50211;52.768;12.124;2023-07-20T09:17:34;19.60;99.90
64012;DHT22;50211;52.768;12.124;2023-07-20T09:20:04;19.60;99.90
64012;DHT22;50211;52.768;12.124;2023-07-20T09:22:37;19.90;99.90
64012;DHT22;50211;52.768;12.124;2023-07-20T09:25:08;20.60;99.90
64012;DHT22;50211;52.768;12.124;2023-07-20T09:27:37;21.20;99.90
64012;DHT22;50211;52.768;12.124;2023-07-20T09:30:03;21.30;99.90
64012;DHT22;50211;52.768;12.124;2023-07-20T09:32:29;20.90;99.90
64012;DHT22;50211;52.768;12.124;2023-07-20T09:34:55;20.70;99.90
64012;DHT22;50211;52.768;12.124;2023-07-20T09:37:21;20.60;99.90
64012;DHT22;50211;52.768;12.124;2023-07-20T09:39:47;20.60;99.90
64012;DHT22;50211;52.768;12.124;2023-07-20T09:42:14;20.50;99.90
64012;DHT22;50211;52.768;12.124;2023-07-20T09:44:43;20.30;99.90
64012;DHT22;50211;52.768;12.124;2023-07-20T09:47:08;19.90;99.90
64012;DHT22;50211;52.768;12.124;2023-07-20T09:49:39;19.90;99.90
64012;DHT22;50211;52.768;12.124;2023-07-20T09:52:05;19.90;99.90
64012;DHT22;50211;52.768;12.124;2023-07-20T09:54:31;19.60;99.90
64012;DHT22;50211;52.768;12.124;2023-07-20T09:56:58;19.70;99.90
64012;DHT22;50211;52.768;12.124;2023-07-20T09:59:24;19.80;99.90
64012;DHT22;50211;52.768;12.124;2023-07-20T10:01:49;19.70;99.90
64012;DHT22;50211;52.768;12.124;2023-07-20T10:04:19;19.70;99.90
64012;DHT22;50211;52.768;12.124;2023-07-20T10:06:47;19.90;99.90
64012;DHT22;50211;52.768;12.124;2023-07-20T10:09:15;20.20;99.90
64012;DHT22;50211;52.768;12.124;2023-07-20T10:11:49;20.40;99.90
64012;DHT22;50211;52.768;12.124;2023-07-20T10:14:19;20.80;99.90
64012;DHT22;50211;52.768;12.124;2023-07-20T10:16:50;21.40;99.90
64012;DHT22;50211;52.768;12.124;2023-07-20T10:19:26;22.30;99.90
64012;DHT22;50211;52.768;12.124;2023-07-20T10:22:12;22.50;99.90
64012;DHT22;50211;52.768;12.124;2023-07-20T10:24:39;23.60;99.90
64012;DHT22;50211;52.768;12.124;2023-07-20T10:27:06;23.30;99.90
64012;DHT22;50211;52.768;12.124;2023-07-20T10:29:32;22.90;99.90
64012;DHT22;50211;52.768;12.124;2023-07-20T10:31:58;23.10;99.90
64012;DHT22;50211;52.768;12.124;2023-07-20T10:34:24;23.80;99.90
64012;DHT22;50211;52.768;12.124;2023-07-20T10:36:50;24.10;99.90
64012;DHT22;50211;52.768;12.124;2023-07-20T10:39:32;23.80;99.90
64012;DHT22;50211;52.768;12.124;2023-07-20T10:42:07;22.60;99.90
64012;DHT22;50211;52.768;12.124;2023-07-20T10:44:33;22.40;99.90
64012;DHT22;50211;52.768;12.124;2023-07-20T10:47:03;22.00;99.90
64012;DHT22;50211;52.768;12.124;2023-07-20T10:49:33;22.00;99.90
64012;DHT22;50211;52.768;12.124;2023-07-20T10:52:00;22.30;99.90
64012;DHT22;50211;52.768;12.124;2023-07-20T10:56:56;22.20;99.90
64012;DHT22;50211;52.768;12.124;2023-07-20T11:01:54;22.50;99.90
64012;DHT22;50211;52.768;12.124;2023-07-20T11:04:38;23.20;99.90
64012;DHT22;50211;52.768;12.124;2023-07-20T11:07:04;23.80;99.90
64012;DHT22;50211;52.768;12.124;2023-07-20T11:09:34;24.30;99.90
64012;DHT22;50211;52.768;12.124;2023-07-20T11:12:11;24.10;99.90
64012;DHT22;50211;52.768;12.124;2023-07-20T11:14:57;24.20;99.90
64012;DHT22;50211;52.768;12.124;2023-07-20T11:17:30;24.70;99.90
64012;DHT22;50211;52.768;12.124;2023-07-20T11:19:56;25.10;99.90
64012;DHT22;50211;52.768;12.124;2023-07-20T11:22:22;25.30;99.90
64012;DHT22;50211;52.768;12.124;2023-07-20T11:24:48;24.70;99.90
64012;DHT22;50211;52.768;12.124;2023-07-20T11:27:14;24.00;99.90
64012;DHT22;50211;52.768;12.124;2023-07-20T11:29:40;24.00;99.90
64012;DHT22;50211;52.768;12.124;2023-07-20T11:32:06;24.00;99.90
64012;DHT22;50211;52.768;12.124;2023-07-20T11:34:33;23.80;99.90
64012;DHT22;50211;52.768;12.124;2023-07-20T11:36:59;23.00;99.90
64012;DHT22;50211;52.768;12.124;2023-07-20T11:39:24;22.80;99.90
64012;DHT22;50211;52.768;12.124;2023-07-20T11:41:54;23.30;99.90
64012;DHT22;50211;52.768;12.124;2023-07-20T11:44:22;23.70;99.90
64012;DHT22;50211;52.768;12.124;2023-07-20T11:47:03;24.30;99.90
64012;DHT22;50211;52.768;12.124;2023-07-20T11:49:30;24.70;99.90
64012;DHT22;50211;52.768;12.124;2023-07-20T11:51:57;24.90;99.90
64012;DHT22;50211;52.768;12.124;2023-07-20T11:54:23;25.30;99.70
64012;DHT22;50211;52.768;12.124;2023-07-20T11:56:53;25.80;99.30
64012;DHT22;50211;52.768;12.124;2023-07-20T11:59:19;25.50;97.30
64012;DHT22;50211;52.768;12.124;2023-07-20T12:01:45;25.00;97.70
64012;DHT22;50211;52.768;12.124;2023-07-20T12:04:11;24.50;98.40
64012;DHT22;50211;52.768;12.124;2023-07-20T12:06:36;24.80;97.90
64012;DHT22;50211;52.768;12.124;2023-07-20T12:09:02;25.20;97.70
64012;DHT22;50211;52.768;12.124;2023-07-20T12:11:48;25.90;98.30
64012;DHT22;50211;52.768;12.124;2023-07-20T12:14:14;26.40;97.40
64012;DHT22;50211;52.768;12.124;2023-07-20T12:16:39;26.00;97.60
64012;DHT22;50211;52.768;12.124;2023-07-20T12:19:10;25.80;97.20
64012;DHT22;50211;52.768;12.124;2023-07-20T12:21:37;25.50;96.60
64012;DHT22;50211;52.768;12.124;2023-07-20T12:24:04;25.50;95.90
64012;DHT22;50211;52.768;12.124;2023-07-20T12:26:30;25.50;95.50
64012;DHT22;50211;52.768;12.124;2023-07-20T12:28:56;25.30;95.90
64012;DHT22;50211;52.768;12.124;2023-07-20T12:31:22;25.50;95.20
64012;DHT22;50211;52.768;12.124;2023-07-20T12:33:50;25.30;95.50
64012;DHT22;50211;52.768;12.124;2023-07-20T12:36:15;24.50;95.30
64012;DHT22;50211;52.768;12.124;2023-07-20T12:38:41;24.00;95.60
64012;DHT22;50211;52.768;12.124;2023-07-20T12:41:10;24.30;95.40
64012;DHT22;50211;52.768;12.124;2023-07-20T12:43:39;24.90;95.30
64012;DHT22;50211;52.768;12.124;2023-07-20T12:46:05;25.70;94.50
64012;DHT22;50211;52.768;12.124;2023-07-20T12:48:31;25.80;93.30
64012;DHT22;50211;52.768;12.124;2023-07-20T12:50:57;25.30;92.70
64012;DHT22;50211;52.768;12.124;2023-07-20T12:53:22;25.10;92.90
64012;DHT22;50211;52.768;12.124;2023-07-20T12:55:48;25.50;93.10
64012;DHT22;50211;52.768;12.124;2023-07-20T12:58:13;25.60;93.70
64012;DHT22;50211;52.768;12.124;2023-07-20T13:00:39;25.50;93.00
64012;DHT22;50211;52.768;12.124;2023-07-20T13:03:05;25.10;93.40
64012;DHT22;50211;52.768;12.124;2023-07-20T13:05:32;25.10;93.60
64012;DHT22;50211;52.768;12.124;2023-07-20T13:07:58;24.90;94.10
64012;DHT22;50211;52.768;12.124;2023-07-20T13:10:24;24.60;94.30
64012;DHT22;50211;52.768;12.124;2023-07-20T13:12:50;24.00;93.80
64012;DHT22;50211;52.768;12.124;2023-07-20T13:15:17;23.60;93.60
64012;DHT22;50211;52.768;12.124;2023-07-20T13:17:42;23.40;94.10
64012;DHT22;50211;52.768;12.124;2023-07-20T13:20:09;24.00;94.80
64012;DHT22;50211;52.768;12.124;2023-07-20T13:22:39;24.70;94.50
64012;DHT22;50211;52.768;12.124;2023-07-20T13:25:06;25.20;94.80
64012;DHT22;50211;52.768;12.124;2023-07-20T13:27:32;25.00;95.40
64012;DHT22;50211;52.768;12.124;2023-07-20T13:30:01;25.20;94.80
64012;DHT22;50211;52.768;12.124;2023-07-20T13:32:31;24.90;94.20
64012;DHT22;50211;52.768;12.124;2023-07-20T13:34:57;24.50;96.00
64012;DHT22;50211;52.768;12.124;2023-07-20T13:37:23;24.10;96.10
64012;DHT22;50211;52.768;12.124;2023-07-20T13:39:48;23.90;96.40
64012;DHT22;50211;52.768;12.124;2023-07-20T13:42:14;24.40;96.20
64012;DHT22;50211;52.768;12.124;2023-07-20T13:44:40;24.80;95.80
64012;DHT22;50211;52.768;12.124;2023-07-20T13:47:06;24.90;95.10
64012;DHT22;50211;52.768;12.124;2023-07-20T13:49:32;25.50;95.10
64012;DHT22;50211;52.768;12.124;2023-07-20T13:51:57;25.50;93.60
64012;DHT22;50211;52.768;12.124;2023-07-20T13:54:24;25.40;93.70
64012;DHT22;50211;52.768;12.124;2023-07-20T13:56:49;25.10;95.10
64012;DHT22;50211;52.768;12.124;2023-07-20T13:59:15;25.30;95.20
64012;DHT22;50211;52.768;12.124;2023-07-20T14:01:41;24.50;94.40
64012;DHT22;50211;52.768;12.124;2023-07-20T14:04:06;24.30;94.60
64012;DHT22;50211;52.768;12.124;2023-07-20T14:06:33;24.60;95.20
64012;DHT22;50211;52.768;12.124;2023-07-20T14:08:59;24.80;94.70
64012;DHT22;50211;52.768;12.124;2023-07-20T14:11:25;24.90;94.20
64012;DHT22;50211;52.768;12.124;2023-07-20T14:13:52;24.90;93.30
64012;DHT22;50211;52.768;12.124;2023-07-20T14:16:21;24.90;94.10
64012;DHT22;50211;52.768;12.124;2023-07-20T14:18:46;25.00;93.40
64012;DHT22;50211;52.768;12.124;2023-07-20T14:21:17;24.50;94.30
64012;DHT22;50211;52.768;12.124;2023-07-20T14:23:48;24.90;94.80
64012;DHT22;50211;52.768;12.124;2023-07-20T14:26:14;25.00;95.20
64012;DHT22;50211;52.768;12.124;2023-07-20T14:28:40;25.20;94.10
64012;DHT22;50211;52.768;12.124;2023-07-20T14:31:06;24.90;94.00
64012;DHT22;50211;52.768;12.124;2023-07-20T14:33:32;25.00;96.00
64012;DHT22;50211;52.768;12.124;2023-07-20T14:35:57;24.30;97.70
64012;DHT22;50211;52.768;12.124;2023-07-20T14:38:23;24.30;98.40
64012;DHT22;50211;52.768;12.124;2023-07-20T14:40:48;24.70;98.20
64012;DHT22;50211;52.768;12.124;2023-07-20T14:43:14;24.80;98.00
64012;DHT22;50211;52.768;12.124;2023-07-20T14:45:43;24.30;98.60
64012;DHT22;50211;52.768;12.124;2023-07-20T14:48:08;23.90;99.90
64012;DHT22;50211;52.768;12.124;2023-07-20T14:50:34;23.70;99.90
64012;DHT22;50211;52.768;12.124;2023-07-20T14:53:00;24.00;99.90
64012;DHT22;50211;52.768;12.124;2023-07-20T14:55:25;23.60;99.00
64012;DHT22;50211;52.768;12.124;2023-07-20T14:57:51;23.70;99.90
64012;DHT22;50211;52.768;12.124;2023-07-20T15:00:17;23.80;99.40
64012;DHT22;50211;52.768;12.124;2023-07-20T15:02:43;24.20;99.90
64012;DHT22;50211;52.768;12.124;2023-07-20T15:05:12;24.50;98.50
64012;DHT22;50211;52.768;12.124;2023-07-20T15:07:37;24.70;99.40
64012;DHT22;50211;52.768;12.124;2023-07-20T15:10:06;25.00;98.80
64012;DHT22;50211;52.768;12.124;2023-07-20T15:12:32;25.30;99.20
64012;DHT22;50211;52.768;12.124;2023-07-20T15:15:11;25.10;98.40
64012;DHT22;50211;52.768;12.124;2023-07-20T15:17:38;24.90;97.40
64012;DHT22;50211;52.768;12.124;2023-07-20T15:20:06;24.50;98.90
64012;DHT22;50211;52.768;12.124;2023-07-20T15:22:33;24.30;98.80
64012;DHT22;50211;52.768;12.124;2023-07-20T15:24:58;23.60;97.60